Time;durP1;ratioP1;P1;durP2;ratioP2;P2;SDS_P1;SDS_P2;PMS_P1;PMS_P2;Temp;Humidity;BMP_temperature;BMP_pressure;BME280_temperature;BME280_humidity;BME280_pressure;Samples;Min_cycle;Max_cycle;Signal;HPM_P1;HPM_P2
2023/01/11 00:02:15;;;;;;;6.50;3.37;;;;;;;8.55;100.00;100554.16;5242154;28;20469;-73
2023/01/11 00:04:47;;;;;;;6.90;3.27;;;;;;;8.54;100.00;100552.41;5242155;28;20049;-73
2023/01/11 00:07:19;;;;;;;5.80;3.67;;;;;;;8.55;100.00;100543.75;5242352;28;20044;-73
2023/01/11 00:09:50;;;;;;;7.23;3.33;;;;;;;8.58;100.00;100548.06;5242565;28;20747;-73
2023/01/11 00:12:22;;;;;;;5.77;3.20;;;;;;;8.64;100.00;100552.34;5242166;28;20492;-74
2023/01/11 00:14:53;;;;;;;6.17;3.23;;;;;;;8.68;100.00;100546.28;5240897;28;20556;-73
2023/01/11 00:17:24;;;;;;;6.73;3.23;;;;;;;8.71;100.00;100543.63;5242482;28;20040;-73
2023/01/11 00:19:56;;;;;;;7.03;3.00;;;;;;;8.71;100.00;100544.50;5242178;28;20029;-72
2023/01/11 00:22:27;;;;;;;6.07;2.60;;;;;;;8.70;100.00;100540.16;5242413;28;20026;-73
2023/01/11 00:24:58;;;;;;;6.93;3.13;;;;;;;8.72;100.00;100534.94;5242105;28;20041;-73
2023/01/11 00:27:30;;;;;;;7.03;2.70;;;;;;;8.74;100.00;100541.00;5241215;28;20035;-74
2023/01/11 00:30:01;;;;;;;4.07;2.47;;;;;;;8.74;100.00;100530.59;5241506;28;20029;-74
2023/01/11 00:32:33;;;;;;;6.57;2.67;;;;;;;8.73;100.00;100537.53;5242366;28;20595;-73
2023/01/11 00:35:04;;;;;;;4.87;3.07;;;;;;;8.75;100.00;100525.38;5242146;28;20041;-74
2023/01/11 00:37:36;;;;;;;5.37;2.83;;;;;;;8.74;100.00;100528.00;5242237;28;20469;-73
2023/01/11 00:40:08;;;;;;;7.00;2.40;;;;;;;8.71;100.00;100526.31;5250203;28;20060;-73
2023/01/11 00:48:20;;;;;;;5.15;2.58;;;;;;;8.65;100.00;100515.09;5245726;28;20034;-74
2023/01/11 00:50:56;;;;;;;6.33;2.83;;;;;;;8.66;100.00;100507.31;5244229;28;20025;-75
2023/01/11 00:53:27;;;;;;;5.32;2.95;;;;;;;8.66;100.00;100519.41;5244794;28;20065;-75
2023/01/11 00:55:58;;;;;;;6.23;2.90;;;;;;;8.66;100.00;100511.63;5244547;28;20060;-74
2023/01/11 00:58:30;;;;;;;9.73;3.73;;;;;;;8.63;100.00;100515.13;5243843;28;20033;-74
2023/01/11 01:01:06;;;;;;;6.27;3.43;;;;;;;8.65;100.00;100512.50;5244085;28;20376;-74
2023/01/11 01:03:37;;;;;;;7.32;3.42;;;;;;;8.66;100.00;100511.63;5243683;28;20026;-74
2023/01/11 01:06:08;;;;;;;5.60;3.13;;;;;;;8.66;100.00;100509.91;5244328;28;20034;-75
2023/01/11 01:08:40;;;;;;;9.60;4.33;;;;;;;8.68;100.00;100508.13;5243744;28;20029;-75
2023/01/11 01:11:11;;;;;;;8.00;4.10;;;;;;;8.70;100.00;100502.94;5242955;28;20057;-74
2023/01/11 01:16:32;;;;;;;6.55;3.97;;;;;;;8.73;100.00;100505.50;5241354;28;20042;-74
2023/01/11 01:19:04;;;;;;;6.87;4.27;;;;;;;8.73;100.00;100501.16;5242679;28;20041;-75
2023/01/11 01:21:36;;;;;;;6.50;3.80;;;;;;;8.82;100.00;100509.72;5242582;28;20029;-74
2023/01/11 01:24:08;;;;;;;6.68;3.85;;;;;;;8.85;100.00;100515.75;5240898;28;20449;-73
2023/01/11 01:26:40;;;;;;;7.23;4.00;;;;;;;8.91;100.00;100510.50;5241821;28;20037;-74
2023/01/11 01:29:13;;;;;;;6.25;3.92;;;;;;;8.93;100.00;100510.47;5240919;28;20033;-75
2023/01/11 01:31:44;;;;;;;5.38;3.60;;;;;;;8.99;100.00;100522.56;5241760;28;20096;-73
2023/01/11 01:34:16;;;;;;;7.83;3.83;;;;;;;8.99;100.00;100517.38;5241521;28;20025;-73
2023/01/11 01:36:47;;;;;;;7.63;4.47;;;;;;;9.00;100.00;100516.47;5241797;28;20076;-74
2023/01/11 01:39:19;;;;;;;5.83;3.73;;;;;;;9.01;100.00;100511.25;5240978;28;20038;-73
2023/01/11 01:41:50;;;;;;;8.77;4.37;;;;;;;9.04;100.00;100507.78;5243815;28;20353;-74
2023/01/11 01:44:52;;;;;;;7.73;4.00;;;;;;;9.04;100.00;100511.22;5245358;28;20033;-73
2023/01/11 01:47:30;;;;;;;8.73;4.25;;;;;;;9.08;100.00;100514.66;5245469;28;20033;-74
2023/01/11 01:50:28;;;;;;;6.10;4.43;;;;;;;9.16;100.00;100509.38;5245249;28;20381;-74
2023/01/11 01:53:06;;;;;;;7.32;4.25;;;;;;;9.13;100.00;100512.88;5244355;28;20104;-74
2023/01/11 01:55:41;;;;;;;6.28;4.00;;;;;;;9.16;100.00;100509.38;5244844;28;20411;-73
2023/01/11 01:58:16;;;;;;;11.60;3.83;;;;;;;9.20;100.00;100516.28;5245249;28;20057;-74
2023/01/11 02:00:48;;;;;;;6.93;4.30;;;;;;;9.21;100.00;100510.19;5244812;28;20471;-74
2023/01/11 02:03:25;;;;;;;7.97;4.47;;;;;;;9.23;100.00;100511.91;5245369;28;20025;-74
2023/01/11 02:05:57;;;;;;;8.25;4.20;;;;;;;9.25;100.00;100511.88;5244979;28;20049;-75
2023/01/11 02:08:34;;;;;;;5.93;4.03;;;;;;;9.28;100.00;100514.44;5244678;28;20115;-74
2023/01/11 02:11:28;;;;;;;6.25;3.63;;;;;;;9.26;100.00;100511.84;5244971;28;20072;-74
2023/01/11 02:14:02;;;;;;;8.07;4.28;;;;;;;9.27;100.00;100505.78;5236035;28;20038;-74
2023/01/11 02:16:33;;;;;;;7.43;4.32;;;;;;;9.34;100.00;100505.69;5224087;28;20057;-74
2023/01/11 02:19:12;;;;;;;8.00;4.10;;;;;;;9.34;100.00;100501.38;5243055;28;20115;-75
2023/01/11 02:22:03;;;;;;;5.60;3.70;;;;;;;9.35;100.00;100500.47;5244675;28;20396;-75
2023/01/11 02:24:59;;;;;;;7.53;4.00;;;;;;;9.37;100.00;100511.75;5240324;28;20073;-74
2023/01/11 02:27:33;;;;;;;5.00;3.42;;;;;;;9.41;100.00;100503.00;5223925;28;20034;-74
2023/01/11 02:30:31;;;;;;;5.70;3.65;;;;;;;9.43;100.00;100510.78;5227697;28;20032;-75
2023/01/11 02:33:12;;;;;;;5.90;3.58;;;;;;;9.46;100.00;100505.53;5240709;28;20115;-75
2023/01/11 02:35:49;;;;;;;4.88;3.75;;;;;;;9.47;100.00;100494.28;5223794;28;20026;-75
2023/01/11 02:38:33;;;;;;;6.10;3.47;;;;;;;9.49;100.00;100498.56;5223306;28;20029;-74
2023/01/11 02:45:00;;;;;;;4.78;3.25;;;;;;;9.54;100.00;100492.44;5223823;28;20119;-74
2023/01/11 02:47:45;;;;;;;6.65;3.45;;;;;;;9.54;100.00;100484.63;5244332;28;20041;-74
2023/01/11 02:50:28;;;;;;;5.93;3.55;;;;;;;9.56;100.00;100488.06;5243267;28;20048;-74
2023/01/11 02:53:15;;;;;;;6.65;4.40;;;;;;;9.58;100.00;100481.09;5243954;28;20032;-74
2023/01/11 02:55:51;;;;;;;4.53;3.78;;;;;;;9.62;100.00;100485.41;5243838;28;20084;-75
2023/01/11 02:58:27;;;;;;;5.93;3.38;;;;;;;9.62;100.00;100490.59;5243753;28;20037;-74
2023/01/11 03:00:59;;;;;;;5.28;3.40;;;;;;;9.63;100.00;100495.78;5243113;28;20030;-75
2023/01/11 03:03:32;;;;;;;5.00;3.30;;;;;;;9.65;100.00;100483.59;5242564;28;20049;-75
2023/01/11 03:06:10;;;;;;;7.97;3.42;;;;;;;9.65;100.00;100483.59;5243784;28;20165;-74
2023/01/11 03:08:50;;;;;;;5.65;3.53;;;;;;;9.70;100.00;100475.72;5243378;28;20041;-75
2023/01/11 03:14:40;;;;;;;3.58;2.90;;;;;;;9.73;100.00;100472.25;5243517;28;20033;-76
2023/01/11 03:17:42;;;;;;;3.88;2.72;;;;;;;9.73;100.00;100473.09;5242256;28;20034;-75
2023/01/11 03:20:19;;;;;;;3.65;2.75;;;;;;;9.73;100.00;100474.84;5242965;28;20472;-74
2023/01/11 03:23:03;;;;;;;5.40;3.20;;;;;;;9.77;100.00;100482.59;5243316;28;20526;-75
2023/01/11 03:25:52;;;;;;;3.83;3.25;;;;;;;9.79;100.00;100485.16;5243229;28;20036;-75
2023/01/11 03:28:47;;;;;;;4.18;3.05;;;;;;;9.77;100.00;100485.19;5243067;28;20540;-75
2023/01/11 03:31:37;;;;;;;4.10;2.90;;;;;;;9.77;100.00;100485.19;5242491;28;20026;-75
2023/01/11 03:34:17;;;;;;;4.70;2.85;;;;;;;9.79;100.00;100485.16;5242716;28;20105;-74
2023/01/11 03:37:17;;;;;;;3.13;2.53;;;;;;;9.79;100.00;100480.81;5243314;28;20034;-76
2023/01/11 03:40:03;;;;;;;7.45;2.90;;;;;;;9.80;100.00;100482.50;5242580;28;20392;-74
2023/01/11 03:43:09;;;;;;;4.72;2.85;;;;;;;9.80;100.00;100477.31;5243270;28;20037;-75
2023/01/11 03:45:34;;;;;;;4.75;2.90;;;;;;;9.79;100.00;100480.81;5242730;28;20130;-75
2023/01/11 03:48:10;;;;;;;6.78;2.40;;;;;;;9.84;100.00;100467.72;5242973;28;20460;-75
2023/01/11 03:50:45;;;;;;;3.90;2.60;;;;;;;9.84;100.00;100476.41;5243155;28;20032;-75
2023/01/11 03:53:19;;;;;;;4.80;2.58;;;;;;;9.83;100.00;100473.81;5242942;28;20037;-75
2023/01/11 03:55:55;;;;;;;4.72;2.50;;;;;;;9.81;100.00;100475.59;5243663;28;20457;-74
2023/01/11 03:58:27;;;;;;;3.45;2.30;;;;;;;9.85;100.00;100474.63;5260471;28;20053;-75
2023/01/11 04:00:59;;;;;;;3.00;2.70;;;;;;;9.86;100.00;100477.22;5254063;28;20033;-75
2023/01/11 04:03:31;;;;;;;3.65;2.35;;;;;;;9.91;100.00;100494.53;5246864;28;20400;-77
2023/01/11 04:06:02;;;;;;;4.37;2.70;;;;;;;9.88;100.00;100473.75;5245037;28;20044;-74
2023/01/11 04:08:34;;;;;;;4.83;2.70;;;;;;;9.92;100.00;100475.41;5244682;28;20037;-74
2023/01/11 04:11:05;;;;;;;3.93;2.87;;;;;;;9.93;100.00;100479.75;5243786;28;20057;-73
2023/01/11 04:13:37;;;;;;;4.20;3.27;;;;;;;9.95;100.00;100476.25;5245169;28;20425;-75
2023/01/11 04:16:08;;;;;;;4.40;3.70;;;;;;;9.98;100.00;100490.94;5245240;28;20464;-75
2023/01/11 04:18:40;;;;;;;5.40;4.10;;;;;;;9.99;100.00;100487.47;5244514;28;20098;-75
2023/01/11 04:21:11;;;;;;;4.40;3.80;;;;;;;10.03;100.00;100510.00;5244666;28;20036;-75
2023/01/11 04:23:42;;;;;;;6.43;4.27;;;;;;;10.07;100.00;100500.38;5244487;28;20030;-75
2023/01/11 04:26:16;;;;;;;5.80;4.03;;;;;;;10.05;100.00;100503.00;5243793;28;20114;-74
2023/01/11 04:28:47;;;;;;;6.28;4.50;;;;;;;10.08;100.00;100494.25;5243363;28;20124;-75
2023/01/11 04:31:19;;;;;;;5.07;4.30;;;;;;;10.07;100.00;100488.22;5242807;28;20553;-74
2023/01/11 04:33:50;;;;;;;9.17;4.53;;;;;;;10.06;100.00;100493.44;5242905;28;20489;-74
2023/01/11 04:36:21;;;;;;;7.00;4.43;;;;;;;10.05;100.00;100503.00;5242282;28;20033;-74
2023/01/11 04:38:53;;;;;;;5.50;4.33;;;;;;;10.06;100.00;100517.72;5242195;28;20041;-74
2023/01/11 04:44:14;;;;;;;4.75;4.25;;;;;;;10.03;100.00;100515.19;5242364;28;20512;-75
2023/01/11 04:46:45;;;;;;;8.43;4.93;;;;;;;10.05;100.00;100513.41;5242024;28;20025;-75
2023/01/11 04:49:17;;;;;;;5.70;4.20;;;;;;;10.03;100.00;100525.63;5241847;28;20033;-75
2023/01/11 04:51:48;;;;;;;6.30;4.90;;;;;;;10.05;100.00;100523.84;5242181;28;20084;-75
2023/01/11 04:54:19;;;;;;;5.57;4.53;;;;;;;10.10;100.00;100531.59;5242002;28;20026;-74
2023/01/11 04:56:51;;;;;;;5.70;4.57;;;;;;;10.11;100.00;100538.50;5240909;28;20095;-76
2023/01/11 04:59:22;;;;;;;5.50;4.27;;;;;;;10.10;100.00;100526.38;5241127;28;20061;-75
2023/01/11 05:01:54;;;;;;;5.97;4.30;;;;;;;10.08;100.00;100528.13;5242120;28;20476;-75
2023/01/11 05:04:25;;;;;;;3.83;3.43;;;;;;;10.08;100.00;100520.31;5242103;28;20030;-75
2023/01/11 05:06:57;;;;;;;3.87;3.47;;;;;;;10.05;100.00;100510.81;5242141;28;20039;-75
2023/01/11 05:09:28;;;;;;;5.50;3.20;;;;;;;10.05;100.00;100529.03;5241604;28;20033;-74
2023/01/11 05:11:59;;;;;;;3.53;3.10;;;;;;;10.00;100.00;100526.50;5241762;28;20052;-76
2023/01/11 05:14:31;;;;;;;4.30;2.73;;;;;;;10.02;100.00;100527.34;5242088;28;20040;-75
2023/01/11 05:17:02;;;;;;;2.97;2.40;;;;;;;10.03;100.00;100526.47;5242637;28;20468;-77
2023/01/11 05:19:33;;;;;;;3.67;2.27;;;;;;;10.03;100.00;100526.47;5246686;28;20044;-74
2023/01/11 05:22:05;;;;;;;3.33;2.40;;;;;;;10.04;100.00;100538.59;5246295;28;20025;-75
2023/01/11 05:24:36;;;;;;;3.83;2.93;;;;;;;10.02;100.00;100550.78;5246245;28;20033;-75
2023/01/11 05:27:08;;;;;;;6.23;3.47;;;;;;;10.03;100.00;100546.44;5244461;28;20124;-75
2023/01/11 05:29:39;;;;;;;8.60;4.17;;;;;;;10.04;100.00;100542.94;5245352;28;20037;-74
2023/01/11 05:32:11;;;;;;;7.23;4.30;;;;;;;10.01;100.00;100554.28;5246010;28;20033;-75
2023/01/11 05:34:43;;;;;;;8.02;5.60;;;;;;;10.04;100.00;100548.16;5245889;28;20034;-75
2023/01/11 05:37:14;;;;;;;8.00;6.67;;;;;;;10.04;100.00;100556.81;5244175;28;20037;-75
2023/01/11 05:39:45;;;;;;;6.60;5.90;;;;;;;10.00;100.00;100536.06;5245900;28;20481;-76
2023/01/11 05:42:17;;;;;;;8.57;6.07;;;;;;;10.02;100.00;100555.13;5245682;28;20388;-75
2023/01/11 05:47:38;;;;;;;8.77;7.43;;;;;;;10.01;100.00;100550.78;5245189;28;20484;-76
2023/01/11 05:50:09;;;;;;;12.50;6.83;;;;;;;9.96;100.00;100555.22;5245475;28;20033;-75
2023/01/11 05:52:41;;;;;;;11.80;8.20;;;;;;;9.97;100.00;100554.34;5245303;28;20044;-75
2023/01/11 05:55:13;;;;;;;10.33;7.50;;;;;;;9.93;100.00;100548.28;5245219;28;20036;-74
2023/01/11 05:57:45;;;;;;;10.30;7.40;;;;;;;9.92;100.00;100554.41;5245216;28;20037;-74
2023/01/11 06:00:17;;;;;;;10.27;7.65;;;;;;;9.96;100.00;100563.03;5244269;28;20045;-75
2023/01/11 06:02:48;;;;;;;12.23;7.70;;;;;;;9.93;100.00;100576.09;5245145;28;20042;-75
2023/01/11 06:05:20;;;;;;;12.77;5.23;;;;;;;9.69;100.00;100583.31;5243812;28;20053;-75
2023/01/11 06:07:52;;;;;;;14.40;5.27;;;;;;;9.59;100.00;100579.13;5245043;28;20484;-75
2023/01/11 06:10:24;;;;;;;12.18;4.43;;;;;;;9.52;100.00;100580.09;5244153;28;20037;-75
2023/01/11 06:13:25;;;;;;;15.33;3.90;;;;;;;9.41;100.00;100586.25;5244426;28;20049;-75
2023/01/11 06:15:46;;;;;;;12.70;3.88;;;;;;;9.39;100.00;100585.41;5244506;28;20116;-75
2023/01/11 06:18:18;;;;;;;15.70;5.17;;;;;;;9.29;100.00;100600.25;5244722;28;20449;-75
2023/01/11 06:20:51;;;;;;;21.83;5.30;;;;;;;9.26;100.00;100594.25;5242895;28;20045;-75
2023/01/11 06:23:22;;;;;;;;;;;;;;;9.22;100.00;100603.78;5245095;28;20033;-75
2023/01/11 06:25:54;;;;;;;15.82;4.78;;;;;;;9.26;100.00;100602.91;5244721;28;19971;-75
2023/01/11 06:28:25;;;;;;;19.10;4.40;;;;;;;9.27;100.00;100604.63;5243370;28;20041;-75
2023/01/11 06:30:58;;;;;;;20.57;5.77;;;;;;;9.30;100.00;100598.50;5244051;28;20083;-74
2023/01/11 06:33:30;;;;;;;16.95;4.65;;;;;;;9.25;100.00;100610.72;5244181;28;20079;-75
2023/01/11 06:36:07;;;;;;;19.67;5.17;;;;;;;9.28;100.00;100618.50;5244488;28;20033;-75
2023/01/11 06:38:40;;;;;;;15.85;4.28;;;;;;;9.36;100.00;100618.41;5244493;28;20111;-75
2023/01/11 06:41:12;;;;;;;;;;;;;;;9.23;100.00;100647.13;5244833;28;20037;-75
2023/01/11 06:43:43;;;;;;;17.45;4.35;;;;;;;9.33;100.00;100642.72;5244266;28;20000;-75
2023/01/11 06:46:15;;;;;;;17.50;5.60;;;;;;;9.32;100.00;100633.16;5244705;28;20104;-75
2023/01/11 06:48:47;;;;;;;20.17;5.68;;;;;;;9.25;100.00;100639.31;5243827;28;20037;-74
2023/01/11 06:51:18;;;;;;;22.23;5.93;;;;;;;9.19;100.00;100640.22;5244890;28;20052;-75
2023/01/11 06:53:50;;;;;;;15.23;4.00;;;;;;;9.26;100.00;100672.28;5244416;28;20107;-74
2023/01/11 06:56:22;;;;;;;25.80;5.63;;;;;;;9.24;100.00;100676.59;5245596;28;20033;-75
2023/01/11 06:58:53;;;;;;;19.55;5.55;;;;;;;9.27;100.00;100668.78;5244469;28;20111;-74
2023/01/11 07:01:25;;;;;;;22.63;5.37;;;;;;;9.24;100.00;100663.59;5244506;28;20480;-75
2023/01/11 07:03:56;;;;;;;25.10;6.07;;;;;;;9.21;100.00;100661.03;5244752;28;20029;-75
2023/01/11 07:06:30;;;;;;;24.97;6.97;;;;;;;9.18;100.00;100668.88;5246169;28;20052;-74
2023/01/11 07:09:02;;;;;;;17.33;5.15;;;;;;;9.19;100.00;100663.63;5244667;28;20026;-74
2023/01/11 07:11:37;;;;;;;24.37;5.93;;;;;;;9.16;100.00;100660.19;5261270;28;20179;-75
2023/01/11 07:14:10;;;;;;;30.33;7.35;;;;;;;9.18;100.00;100684.47;5257292;28;20037;-74
2023/01/11 07:16:51;;;;;;;26.35;6.35;;;;;;;9.17;100.00;100681.00;5253547;28;20029;-74
2023/01/11 07:19:22;;;;;;;20.83;5.07;;;;;;;9.11;100.00;100694.94;5252063;28;20043;-75
2023/01/11 07:21:53;;;;;;;25.97;6.17;;;;;;;9.04;100.00;100703.63;5256377;28;20041;-75
2023/01/11 07:24:25;;;;;;;20.73;8.03;;;;;;;8.97;100.00;100709.78;5246491;28;20400;-72
2023/01/11 07:26:59;;;;;;;25.77;6.23;;;;;;;8.97;100.00;100709.78;5243615;28;20030;-72
2023/01/11 07:29:31;;;;;;;22.85;6.28;;;;;;;8.92;100.00;100724.56;5243791;28;20033;-72
2023/01/11 07:32:03;;;;;;;26.37;6.13;;;;;;;8.90;100.00;100721.06;5244060;28;20029;-73
2023/01/11 07:34:36;;;;;;;30.98;8.45;;;;;;;8.85;100.00;100721.09;5244166;28;20102;-72
2023/01/11 07:37:08;;;;;;;;;;;;;;;8.79;100.00;100715.09;5243967;28;20412;-72
2023/01/11 07:39:39;;;;;;;27.80;6.82;;;;;;;8.71;100.00;100722.94;5242634;28;19919;-72
2023/01/11 07:45:02;;;;;;;27.23;7.47;;;;;;;8.68;100.00;100731.63;5243213;28;20393;-72
2023/01/11 07:47:33;;;;;;;24.30;6.97;;;;;;;8.66;100.00;100735.97;5242909;28;20131;-73
2023/01/11 07:50:05;;;;;;;25.60;6.23;;;;;;;8.65;100.00;100747.22;5242056;28;20061;-72
2023/01/11 07:52:37;;;;;;;25.88;6.93;;;;;;;8.61;100.00;100758.50;5243293;28;20405;-72
2023/01/11 07:55:08;;;;;;;27.33;5.67;;;;;;;8.52;100.00;100763.75;5242621;28;20084;-72
2023/01/11 07:57:39;;;;;;;24.37;5.43;;;;;;;8.49;100.00;100758.56;5243155;28;20432;-72
2023/01/11 08:00:11;;;;;;;24.30;5.70;;;;;;;8.52;100.00;100766.34;5242678;28;20490;-71
2023/01/11 08:02:43;;;;;;;26.53;6.93;;;;;;;8.42;100.00;100767.22;5242498;28;20036;-72
2023/01/11 08:05:14;;;;;;;22.80;6.13;;;;;;;8.41;100.00;100766.38;5242562;28;20029;-72
2023/01/11 08:07:46;;;;;;;27.87;7.63;;;;;;;8.43;100.00;100774.16;5242686;28;20034;-72
2023/01/11 08:10:17;;;;;;;21.57;5.57;;;;;;;8.38;100.00;100774.16;5242086;28;20357;-72
2023/01/11 08:15:41;;;;;;;22.80;5.88;;;;;;;8.30;100.00;100786.31;5241932;28;20053;-72
2023/01/11 08:18:12;;;;;;;24.77;5.90;;;;;;;8.28;100.00;100796.72;5242471;28;20061;-72
2023/01/11 08:20:44;;;;;;;28.10;6.23;;;;;;;8.25;100.00;100807.09;5241070;28;20069;-71
2023/01/11 08:23:15;;;;;;;27.97;6.60;;;;;;;8.22;100.00;100814.91;5241638;28;20042;-72
2023/01/11 08:25:47;;;;;;;27.53;7.10;;;;;;;8.24;100.00;100823.53;5240886;28;20109;-71
2023/01/11 08:28:18;;;;;;;23.73;5.93;;;;;;;8.19;100.00;100831.38;5240736;28;20037;-72
2023/01/11 08:30:50;;;;;;;31.13;7.43;;;;;;;8.21;100.00;100833.94;5241996;28;20029;-72
2023/01/11 08:33:21;;;;;;;27.70;6.90;;;;;;;8.16;100.00;100846.97;5241895;28;20034;-72
2023/01/11 08:35:52;;;;;;;27.80;8.17;;;;;;;8.21;100.00;100850.41;5242039;28;20127;-72
2023/01/11 08:38:24;;;;;;;19.57;5.03;;;;;;;8.18;100.00;100845.22;5241905;28;20025;-72
2023/01/11 08:40:55;;;;;;;23.03;5.80;;;;;;;8.15;100.00;100852.16;5241703;28;20037;-72
2023/01/11 08:43:30;;;;;;;22.33;5.77;;;;;;;8.11;100.00;100853.00;5242107;28;20037;-72
2023/01/11 08:46:01;;;;;;;20.70;5.45;;;;;;;8.13;100.00;100856.47;5241685;28;20033;-72
2023/01/11 08:48:32;;;;;;;26.23;6.67;;;;;;;8.04;100.00;100857.34;5241775;28;20466;-72
2023/01/11 08:51:04;;;;;;;25.27;5.77;;;;;;;8.02;100.00;100865.16;5241792;28;20512;-72
2023/01/11 08:53:36;;;;;;;23.43;5.67;;;;;;;8.01;100.00;100865.16;5240805;28;20033;-72
2023/01/11 08:56:08;;;;;;;21.23;5.47;;;;;;;7.98;100.00;100873.78;5241716;28;20103;-72
2023/01/11 08:58:39;;;;;;;24.70;5.30;;;;;;;7.99;100.00;100885.06;5242057;28;20128;-72
2023/01/11 09:01:11;;;;;;;27.87;5.80;;;;;;;7.90;100.00;100882.44;5241624;28;20033;-72
2023/01/11 09:03:42;;;;;;;25.00;5.33;;;;;;;7.91;100.00;100902.38;5241617;28;20384;-72
2023/01/11 09:06:14;;;;;;;24.07;5.80;;;;;;;7.87;100.00;100898.03;5242189;28;20097;-72
2023/01/11 09:08:46;;;;;;;23.77;5.60;;;;;;;7.87;100.00;100901.47;5241594;28;20029;-72
2023/01/11 09:14:08;;;;;;;29.17;5.72;;;;;;;7.82;100.00;100905.81;5242043;28;20396;-72
2023/01/11 09:16:39;;;;;;;25.77;5.83;;;;;;;7.77;100.00;100907.53;5241479;28;20116;-72
2023/01/11 09:19:11;;;;;;;22.90;5.57;;;;;;;7.74;100.00;100904.94;5241469;28;20564;-72
2023/01/11 09:21:44;;;;;;;24.50;6.00;;;;;;;7.74;100.00;100907.53;5240427;28;20121;-72
2023/01/11 09:24:15;;;;;;;29.92;5.70;;;;;;;7.74;100.00;100910.13;5241745;28;20373;-71
2023/01/11 09:26:47;;;;;;;24.47;5.00;;;;;;;7.71;100.00;100907.53;5241440;28;20025;-72
2023/01/11 09:29:19;;;;;;;19.10;5.33;;;;;;;7.64;100.00;100910.09;5241737;28;20107;-72
2023/01/11 09:31:50;;;;;;;22.00;5.23;;;;;;;7.65;100.00;100914.44;5241299;28;20071;-71
2023/01/11 09:34:23;;;;;;;29.77;5.77;;;;;;;7.60;100.00;100921.38;5241414;28;20059;-72
2023/01/11 09:36:58;;;;;;;24.52;5.95;;;;;;;7.62;100.00;100923.97;5241806;28;20026;-72
2023/01/11 09:39:29;;;;;;;27.35;5.63;;;;;;;7.66;100.00;100931.75;5239981;28;20396;-72
2023/01/11 09:42:34;;;;;;;14.93;5.10;;;;;;;7.74;100.00;100936.94;5241256;28;20099;-73
2023/01/11 09:45:13;;;;;;;24.88;7.25;;;;;;;7.88;100.00;100942.16;5242024;28;20030;-72
2023/01/11 09:48:10;;;;;;;16.42;4.18;;;;;;;8.05;100.00;100936.97;5241162;28;20139;-72
2023/01/11 09:50:44;;;;;;;20.50;6.28;;;;;;;8.06;100.00;100935.25;5241479;28;20030;-72
2023/01/11 09:53:26;;;;;;;20.27;4.80;;;;;;;8.10;100.00;100940.44;5240718;28;20037;-72
2023/01/11 09:56:00;;;;;;;27.10;6.40;;;;;;;8.11;100.00;100951.69;5241848;28;20036;-72
2023/01/11 09:58:49;;;;;;;21.63;6.65;;;;;;;8.12;100.00;100951.69;5240803;28;20041;-72
2023/01/11 10:01:26;;;;;;;15.07;4.20;;;;;;;8.33;100.00;100955.13;5240994;28;20091;-72
2023/01/11 10:04:06;;;;;;;23.52;5.82;;;;;;;8.71;100.00;100957.72;5244958;28;20040;-72
2023/01/11 10:07:05;;;;;;;19.42;4.75;;;;;;;9.05;100.00;100952.41;5244818;28;20033;-72
2023/01/11 10:10:04;;;;;;;20.73;5.05;;;;;;;9.19;100.00;100961.88;5245004;28;20025;-71
2023/01/11 10:13:03;;;;;;;20.17;5.35;;;;;;;9.50;100.00;100962.63;5244835;28;20183;-72
2023/01/11 10:15:53;;;;;;;18.17;5.32;;;;;;;9.63;100.00;100950.38;5243982;28;20049;-72
2023/01/11 10:19:04;;;;;;;19.25;5.07;;;;;;;9.73;100.00;100959.84;5245296;28;20026;-72
2023/01/11 10:21:49;;;;;;;18.25;4.65;;;;;;;9.71;100.00;100966.81;5244563;28;20044;-72
2023/01/11 10:24:26;;;;;;;20.38;5.53;;;;;;;9.39;99.97;100974.81;5245131;28;20021;-72
2023/01/11 10:27:06;;;;;;;22.80;5.57;;;;;;;9.74;100.00;100953.78;5244858;28;20418;-72
2023/01/11 10:32:37;;;;;;;19.52;5.10;;;;;;;9.47;99.67;100960.03;5244301;28;20041;-72
2023/01/11 10:38:53;;;;;;;16.27;4.65;;;;;;;10.10;98.15;100964.81;5244365;28;20159;-72
2023/01/11 10:41:36;;;;;;;18.23;4.65;;;;;;;10.33;98.57;100964.63;5244198;28;20036;-72
2023/01/11 10:44:07;;;;;;;;;;;;;;;10.38;95.47;100968.09;5245366;28;20156;-72
2023/01/11 10:46:44;;;;;;;16.57;4.60;;;;;;;10.19;93.96;100969.94;5244133;28;19994;-72
2023/01/11 10:49:47;;;;;;;18.33;4.45;;;;;;;10.70;93.64;100976.47;5244035;28;20276;-72
2023/01/11 10:52:28;;;;;;;15.25;4.20;;;;;;;10.81;92.63;100964.16;5244345;28;20022;-72
2023/01/11 10:55:11;;;;;;;19.95;5.88;;;;;;;10.97;90.86;100961.41;5244704;28;20025;-72
2023/01/11 10:57:52;;;;;;;19.38;4.88;;;;;;;11.10;89.11;100966.44;5244177;28;20029;-72
2023/01/11 11:00:34;;;;;;;17.40;4.82;;;;;;;11.24;88.20;100973.25;5243894;28;20029;-72
2023/01/11 11:03:24;;;;;;;23.42;6.55;;;;;;;11.49;87.16;100958.13;5243754;28;20030;-72
2023/01/11 11:06:19;;;;;;;21.60;6.03;;;;;;;11.64;86.90;100963.13;5244456;28;20413;-72
2023/01/11 11:08:56;;;;;;;19.10;5.30;;;;;;;11.54;82.78;100971.97;5244202;28;20537;-71
2023/01/11 11:11:35;;;;;;;19.50;5.68;;;;;;;11.75;81.83;100973.44;5243638;28;20091;-72
2023/01/11 11:14:14;;;;;;;18.08;5.43;;;;;;;11.84;81.78;100977.66;5244022;28;20088;-72
2023/01/11 11:16:52;;;;;;;18.80;4.82;;;;;;;11.72;79.48;100967.38;5244153;28;20456;-71
2023/01/11 11:19:29;;;;;;;15.63;4.43;;;;;;;11.60;81.51;100974.50;5243704;28;20095;-72
2023/01/11 11:22:00;;;;;;;17.33;5.03;;;;;;;11.68;80.64;100967.41;5242111;28;20036;-73
2023/01/11 11:24:39;;;;;;;17.67;4.70;;;;;;;11.76;80.11;100972.53;5243295;28;20439;-73
2023/01/11 11:27:22;;;;;;;14.70;4.75;;;;;;;11.83;80.42;100974.19;5243451;28;20029;-72
2023/01/11 11:29:55;;;;;;;20.20;5.00;;;;;;;12.30;79.02;100970.84;5243708;28;20066;-72
2023/01/11 11:32:34;;;;;;;16.60;5.53;;;;;;;13.06;76.66;100962.47;5243224;28;20032;-72
2023/01/11 11:35:26;;;;;;;21.65;5.75;;;;;;;13.37;75.10;100965.34;5243298;28;20029;-72
2023/01/11 11:37:58;;;;;;;15.50;4.65;;;;;;;12.79;72.85;100971.72;5242891;28;20041;-72
2023/01/11 11:40:35;;;;;;;17.83;4.85;;;;;;;12.85;73.12;100982.94;5243003;28;20473;-72
2023/01/11 11:43:25;;;;;;;21.17;4.70;;;;;;;12.74;75.17;100982.28;5241767;28;20026;-72
2023/01/11 11:45:59;;;;;;;19.80;5.20;;;;;;;13.34;69.81;100978.50;5243109;28;20098;-71
2023/01/11 11:48:33;;;;;;;22.13;5.55;;;;;;;13.17;70.62;100984.06;5242875;28;20036;-72
2023/01/11 11:51:08;;;;;;;17.90;5.45;;;;;;;12.74;69.55;100990.13;5242850;28;20034;-72
2023/01/11 11:53:45;;;;;;;17.40;5.70;;;;;;;12.68;71.58;100991.09;5242895;28;20021;-72
2023/01/11 11:56:23;;;;;;;16.85;5.50;;;;;;;12.91;71.66;100988.06;5242785;28;20052;-72
2023/01/11 11:58:56;;;;;;;19.20;4.93;;;;;;;12.80;71.01;100994.38;5242116;28;20038;-72
2023/01/11 12:01:38;;;;;;;18.58;5.20;;;;;;;12.90;71.42;100998.56;5242527;28;20057;-72
2023/01/11 12:04:15;;;;;;;21.02;6.22;;;;;;;12.30;72.12;101004.81;5242384;28;20034;-72
2023/01/11 12:07:04;;;;;;;15.48;5.25;;;;;;;12.39;71.88;100999.44;5243334;28;20094;-72
2023/01/11 12:09:39;;;;;;;19.70;6.05;;;;;;;13.18;69.03;100983.16;5242499;28;20116;-71
2023/01/11 12:12:19;;;;;;;16.77;5.72;;;;;;;13.18;68.16;100983.16;5243312;28;20453;-72
2023/01/11 12:15:16;;;;;;;14.70;5.05;;;;;;;12.47;69.90;100986.25;5241079;28;20124;-72
2023/01/11 12:17:47;;;;;;;20.25;5.40;;;;;;;11.72;71.63;100975.19;5242286;28;20033;-72
2023/01/11 12:20:22;;;;;;;17.27;4.80;;;;;;;12.21;72.17;100990.16;5241658;28;20060;-72
2023/01/11 12:23:17;;;;;;;18.45;4.70;;;;;;;11.99;70.63;101000.97;5242504;28;20275;-72
2023/01/11 12:26:03;;;;;;;18.65;5.93;;;;;;;11.23;73.94;100989.78;5242019;28;20112;-72
2023/01/11 12:28:52;;;;;;;17.50;5.13;;;;;;;11.54;73.03;100992.84;5241999;28;20037;-74
2023/01/11 12:31:49;;;;;;;15.48;4.70;;;;;;;11.64;73.91;100991.84;5242013;28;20025;-72
2023/01/11 12:34:32;;;;;;;18.20;4.45;;;;;;;12.03;71.95;100999.16;5241911;28;20040;-72
2023/01/11 12:37:16;;;;;;;21.77;5.10;;;;;;;12.32;68.90;100993.47;5242143;28;20476;-72
2023/01/11 12:39:52;;;;;;;26.17;6.50;;;;;;;12.76;67.83;100991.81;5240699;28;20033;-72